sensor_id;sensor_type;location;lat;lon;timestamp;P1;durP1;ratioP1;P2;durP2;ratioP2
27632;SDS011;15046;50.930;13.334;2023-05-10T00:02:10;6.63;;;3.60;;
27632;SDS011;15046;50.930;13.334;2023-05-10T00:04:36;5.97;;;3.28;;
27632;SDS011;15046;50.930;13.334;2023-05-10T00:07:02;5.70;;;3.25;;
27632;SDS011;15046;50.930;13.334;2023-05-10T00:09:27;5.82;;;3.05;;
27632;SDS011;15046;50.930;13.334;2023-05-10T00:11:53;5.80;;;3.35;;
27632;SDS011;15046;50.930;13.334;2023-05-10T00:14:19;18.63;;;3.72;;
27632;SDS011;15046;50.930;13.334;2023-05-10T00:16:45;8.23;;;3.47;;
27632;SDS011;15046;50.930;13.334;2023-05-10T00:19:11;6.03;;;2.88;;
27632;SDS011;15046;50.930;13.334;2023-05-10T00:21:37;5.45;;;3.15;;
27632;SDS011;15046;50.930;13.334;2023-05-10T00:24:03;6.43;;;3.20;;
27632;SDS011;15046;50.930;13.334;2023-05-10T00:26:29;6.75;;;3.40;;
27632;SDS011;15046;50.930;13.334;2023-05-10T00:28:55;8.63;;;3.05;;
27632;SDS011;15046;50.930;13.334;2023-05-10T00:31:21;5.38;;;3.10;;
27632;SDS011;15046;50.930;13.334;2023-05-10T00:33:47;6.70;;;3.17;;
27632;SDS011;15046;50.930;13.334;2023-05-10T00:36:13;7.55;;;3.72;;
27632;SDS011;15046;50.930;13.334;2023-05-10T00:38:39;5.40;;;3.10;;
27632;SDS011;15046;50.930;13.334;2023-05-10T00:41:05;6.75;;;3.15;;
27632;SDS011;15046;50.930;13.334;2023-05-10T00:43:31;6.78;;;3.03;;
27632;SDS011;15046;50.930;13.334;2023-05-10T00:45:57;6.22;;;3.20;;
27632;SDS011;15046;50.930;13.334;2023-05-10T00:48:23;7.47;;;2.95;;
27632;SDS011;15046;50.930;13.334;2023-05-10T00:50:49;7.00;;;3.47;;
27632;SDS011;15046;50.930;13.334;2023-05-10T00:53:15;8.30;;;3.70;;
27632;SDS011;15046;50.930;13.334;2023-05-10T00:55:41;5.40;;;3.35;;
27632;SDS011;15046;50.930;13.334;2023-05-10T00:58:07;8.23;;;3.30;;
27632;SDS011;15046;50.930;13.334;2023-05-10T01:00:33;8.10;;;3.55;;
27632;SDS011;15046;50.930;13.334;2023-05-10T01:03:00;8.98;;;3.60;;
27632;SDS011;15046;50.930;13.334;2023-05-10T01:05:26;5.55;;;3.45;;
27632;SDS011;15046;50.930;13.334;2023-05-10T01:07:52;5.97;;;2.92;;
27632;SDS011;15046;50.930;13.334;2023-05-10T01:10:18;6.68;;;3.22;;
27632;SDS011;15046;50.930;13.334;2023-05-10T01:12:45;6.10;;;3.13;;
27632;SDS011;15046;50.930;13.334;2023-05-10T01:15:12;5.75;;;3.28;;
27632;SDS011;15046;50.930;13.334;2023-05-10T01:17:40;6.95;;;3.10;;
27632;SDS011;15046;50.930;13.334;2023-05-10T01:20:09;6.20;;;3.55;;
27632;SDS011;15046;50.930;13.334;2023-05-10T01:38:54;6.97;;;3.17;;
27632;SDS011;15046;50.930;13.334;2023-05-10T01:41:54;5.97;;;3.75;;
27632;SDS011;15046;50.930;13.334;2023-05-10T01:44:34;6.70;;;3.22;;
27632;SDS011;15046;50.930;13.334;2023-05-10T01:47:22;5.13;;;3.20;;
27632;SDS011;15046;50.930;13.334;2023-05-10T01:50:00;5.60;;;3.03;;
27632;SDS011;15046;50.930;13.334;2023-05-10T01:52:33;5.80;;;3.55;;
27632;SDS011;15046;50.930;13.334;2023-05-10T01:55:07;6.03;;;3.03;;
27632;SDS011;15046;50.930;13.334;2023-05-10T01:57:37;5.75;;;2.78;;
27632;SDS011;15046;50.930;13.334;2023-05-10T02:00:06;5.25;;;3.40;;
27632;SDS011;15046;50.930;13.334;2023-05-10T02:02:36;7.97;;;3.45;;
27632;SDS011;15046;50.930;13.334;2023-05-10T02:05:04;6.10;;;3.63;;
27632;SDS011;15046;50.930;13.334;2023-05-10T02:07:32;6.35;;;3.35;;
27632;SDS011;15046;50.930;13.334;2023-05-10T02:10:00;6.32;;;3.50;;
27632;SDS011;15046;50.930;13.334;2023-05-10T02:12:31;5.18;;;3.03;;
27632;SDS011;15046;50.930;13.334;2023-05-10T02:15:03;6.60;;;3.45;;
27632;SDS011;15046;50.930;13.334;2023-05-10T02:17:34;6.57;;;3.80;;
27632;SDS011;15046;50.930;13.334;2023-05-10T02:20:02;5.60;;;3.30;;
27632;SDS011;15046;50.930;13.334;2023-05-10T02:22:31;6.13;;;3.50;;
27632;SDS011;15046;50.930;13.334;2023-05-10T02:24:58;6.18;;;3.45;;
27632;SDS011;15046;50.930;13.334;2023-05-10T02:27:25;5.55;;;3.50;;
27632;SDS011;15046;50.930;13.334;2023-05-10T02:29:53;5.75;;;3.42;;
27632;SDS011;15046;50.930;13.334;2023-05-10T02:32:21;6.65;;;3.78;;
27632;SDS011;15046;50.930;13.334;2023-05-10T02:34:47;8.82;;;3.67;;
27632;SDS011;15046;50.930;13.334;2023-05-10T02:37:17;10.73;;;4.22;;
27632;SDS011;15046;50.930;13.334;2023-05-10T02:39:46;6.30;;;3.35;;
27632;SDS011;15046;50.930;13.334;2023-05-10T02:42:16;8.27;;;3.37;;
27632;SDS011;15046;50.930;13.334;2023-05-10T02:44:45;7.65;;;3.05;;
27632;SDS011;15046;50.930;13.334;2023-05-10T02:47:12;7.30;;;3.37;;
27632;SDS011;15046;50.930;13.334;2023-05-10T02:49:38;6.80;;;3.58;;
27632;SDS011;15046;50.930;13.334;2023-05-10T02:52:05;5.30;;;3.13;;
27632;SDS011;15046;50.930;13.334;2023-05-10T02:54:35;6.15;;;3.38;;
27632;SDS011;15046;50.930;13.334;2023-05-10T02:57:08;7.68;;;3.45;;
27632;SDS011;15046;50.930;13.334;2023-05-10T02:59:40;6.10;;;3.65;;
27632;SDS011;15046;50.930;13.334;2023-05-10T03:02:08;6.57;;;3.80;;
27632;SDS011;15046;50.930;13.334;2023-05-10T03:04:35;6.32;;;3.40;;
27632;SDS011;15046;50.930;13.334;2023-05-10T03:07:01;6.88;;;3.67;;
27632;SDS011;15046;50.930;13.334;2023-05-10T03:09:27;8.85;;;3.85;;
27632;SDS011;15046;50.930;13.334;2023-05-10T03:17:24;8.88;;;4.10;;
27632;SDS011;15046;50.930;13.334;2023-05-10T03:20:12;7.00;;;3.60;;
27632;SDS011;15046;50.930;13.334;2023-05-10T03:22:51;5.85;;;3.45;;
27632;SDS011;15046;50.930;13.334;2023-05-10T03:25:25;6.07;;;3.70;;
27632;SDS011;15046;50.930;13.334;2023-05-10T03:27:51;5.38;;;3.53;;
27632;SDS011;15046;50.930;13.334;2023-05-10T03:30:18;10.05;;;3.75;;
27632;SDS011;15046;50.930;13.334;2023-05-10T03:32:45;7.13;;;3.58;;
27632;SDS011;15046;50.930;13.334;2023-05-10T03:35:11;6.90;;;3.42;;
27632;SDS011;15046;50.930;13.334;2023-05-10T03:37:39;6.90;;;3.53;;
27632;SDS011;15046;50.930;13.334;2023-05-10T03:40:05;10.70;;;3.95;;
27632;SDS011;15046;50.930;13.334;2023-05-10T03:42:31;7.18;;;3.55;;
27632;SDS011;15046;50.930;13.334;2023-05-10T03:44:57;6.65;;;3.63;;
27632;SDS011;15046;50.930;13.334;2023-05-10T03:47:22;4.35;;;2.85;;
27632;SDS011;15046;50.930;13.334;2023-05-10T03:49:48;7.57;;;3.78;;
27632;SDS011;15046;50.930;13.334;2023-05-10T03:52:14;4.80;;;3.13;;
27632;SDS011;15046;50.930;13.334;2023-05-10T03:54:40;6.88;;;3.72;;
27632;SDS011;15046;50.930;13.334;2023-05-10T03:57:06;5.75;;;3.40;;
27632;SDS011;15046;50.930;13.334;2023-05-10T03:59:32;4.93;;;2.95;;
27632;SDS011;15046;50.930;13.334;2023-05-10T04:01:57;6.28;;;3.72;;
27632;SDS011;15046;50.930;13.334;2023-05-10T04:04:23;6.63;;;3.83;;
27632;SDS011;15046;50.930;13.334;2023-05-10T04:06:49;6.50;;;3.30;;
27632;SDS011;15046;50.930;13.334;2023-05-10T04:09:15;6.18;;;3.60;;
27632;SDS011;15046;50.930;13.334;2023-05-10T04:11:42;7.05;;;3.80;;
27632;SDS011;15046;50.930;13.334;2023-05-10T04:14:08;5.85;;;3.25;;
27632;SDS011;15046;50.930;13.334;2023-05-10T04:16:34;8.30;;;4.03;;
27632;SDS011;15046;50.930;13.334;2023-05-10T04:19:00;7.25;;;3.28;;
27632;SDS011;15046;50.930;13.334;2023-05-10T04:21:25;6.35;;;3.33;;
27632;SDS011;15046;50.930;13.334;2023-05-10T04:23:51;5.85;;;3.13;;
27632;SDS011;15046;50.930;13.334;2023-05-10T04:26:17;6.63;;;3.67;;
27632;SDS011;15046;50.930;13.334;2023-05-10T04:28:43;7.00;;;3.65;;
27632;SDS011;15046;50.930;13.334;2023-05-10T04:31:09;7.45;;;3.50;;
27632;SDS011;15046;50.930;13.334;2023-05-10T04:33:35;8.07;;;3.25;;
27632;SDS011;15046;50.930;13.334;2023-05-10T04:36:02;7.10;;;3.20;;
27632;SDS011;15046;50.930;13.334;2023-05-10T04:38:28;6.50;;;3.72;;
27632;SDS011;15046;50.930;13.334;2023-05-10T04:40:54;7.18;;;3.40;;
27632;SDS011;15046;50.930;13.334;2023-05-10T04:43:37;5.60;;;3.25;;
27632;SDS011;15046;50.930;13.334;2023-05-10T04:46:04;7.43;;;3.25;;
27632;SDS011;15046;50.930;13.334;2023-05-10T04:48:30;5.95;;;3.17;;
27632;SDS011;15046;50.930;13.334;2023-05-10T04:50:56;6.20;;;3.40;;
27632;SDS011;15046;50.930;13.334;2023-05-10T04:53:22;6.68;;;3.20;;
27632;SDS011;15046;50.930;13.334;2023-05-10T04:55:48;5.15;;;3.40;;
27632;SDS011;15046;50.930;13.334;2023-05-10T04:58:13;9.38;;;3.58;;
27632;SDS011;15046;50.930;13.334;2023-05-10T05:00:40;5.70;;;3.30;;
27632;SDS011;15046;50.930;13.334;2023-05-10T05:03:05;5.63;;;3.17;;
27632;SDS011;15046;50.930;13.334;2023-05-10T05:05:32;5.65;;;3.10;;
27632;SDS011;15046;50.930;13.334;2023-05-10T05:07:58;5.07;;;2.85;;
27632;SDS011;15046;50.930;13.334;2023-05-10T05:10:24;6.80;;;3.35;;
27632;SDS011;15046;50.930;13.334;2023-05-10T05:12:50;5.22;;;3.05;;
27632;SDS011;15046;50.930;13.334;2023-05-10T05:15:16;9.18;;;3.00;;
27632;SDS011;15046;50.930;13.334;2023-05-10T05:17:42;6.50;;;3.22;;
27632;SDS011;15046;50.930;13.334;2023-05-10T05:20:08;8.07;;;3.10;;
27632;SDS011;15046;50.930;13.334;2023-05-10T05:22:38;7.38;;;2.88;;
27632;SDS011;15046;50.930;13.334;2023-05-10T05:25:04;5.20;;;3.08;;
27632;SDS011;15046;50.930;13.334;2023-05-10T05:27:31;5.22;;;2.70;;
27632;SDS011;15046;50.930;13.334;2023-05-10T05:29:57;5.82;;;2.78;;
27632;SDS011;15046;50.930;13.334;2023-05-10T05:32:23;10.38;;;3.13;;
27632;SDS011;15046;50.930;13.334;2023-05-10T05:34:49;5.40;;;3.00;;
27632;SDS011;15046;50.930;13.334;2023-05-10T05:37:16;5.47;;;2.97;;
27632;SDS011;15046;50.930;13.334;2023-05-10T05:39:43;5.15;;;2.90;;
27632;SDS011;15046;50.930;13.334;2023-05-10T05:42:09;5.88;;;3.20;;
27632;SDS011;15046;50.930;13.334;2023-05-10T05:44:36;8.73;;;3.55;;
27632;SDS011;15046;50.930;13.334;2023-05-10T05:47:02;5.22;;;2.92;;
27632;SDS011;15046;50.930;13.334;2023-05-10T05:49:28;4.82;;;2.90;;
27632;SDS011;15046;50.930;13.334;2023-05-10T05:51:54;7.53;;;3.42;;
27632;SDS011;15046;50.930;13.334;2023-05-10T05:54:19;5.47;;;2.70;;
27632;SDS011;15046;50.930;13.334;2023-05-10T05:56:45;4.88;;;2.70;;
27632;SDS011;15046;50.930;13.334;2023-05-10T05:59:11;5.13;;;3.00;;
27632;SDS011;15046;50.930;13.334;2023-05-10T06:01:37;4.93;;;2.80;;
27632;SDS011;15046;50.930;13.334;2023-05-10T06:04:03;5.72;;;3.35;;
27632;SDS011;15046;50.930;13.334;2023-05-10T06:06:29;6.70;;;2.88;;
27632;SDS011;15046;50.930;13.334;2023-05-10T06:08:54;5.95;;;2.83;;
27632;SDS011;15046;50.930;13.334;2023-05-10T06:11:20;5.82;;;3.20;;
27632;SDS011;15046;50.930;13.334;2023-05-10T06:13:46;4.28;;;2.47;;
27632;SDS011;15046;50.930;13.334;2023-05-10T06:16:12;6.22;;;2.83;;
27632;SDS011;15046;50.930;13.334;2023-05-10T06:18:38;4.25;;;2.63;;
27632;SDS011;15046;50.930;13.334;2023-05-10T06:21:04;6.55;;;2.92;;
27632;SDS011;15046;50.930;13.334;2023-05-10T06:23:30;5.72;;;2.55;;
27632;SDS011;15046;50.930;13.334;2023-05-10T06:25:56;5.68;;;3.00;;
27632;SDS011;15046;50.930;13.334;2023-05-10T06:28:22;6.05;;;2.50;;
27632;SDS011;15046;50.930;13.334;2023-05-10T06:30:47;4.88;;;2.85;;
27632;SDS011;15046;50.930;13.334;2023-05-10T06:33:13;6.07;;;3.05;;
27632;SDS011;15046;50.930;13.334;2023-05-10T06:35:41;6.53;;;3.00;;
27632;SDS011;15046;50.930;13.334;2023-05-10T06:38:06;6.28;;;2.88;;
27632;SDS011;15046;50.930;13.334;2023-05-10T06:40:32;5.78;;;3.10;;
27632;SDS011;15046;50.930;13.334;2023-05-10T06:42:58;6.07;;;3.15;;
27632;SDS011;15046;50.930;13.334;2023-05-10T06:45:24;5.30;;;3.00;;
27632;SDS011;15046;50.930;13.334;2023-05-10T06:47:50;5.13;;;2.92;;
27632;SDS011;15046;50.930;13.334;2023-05-10T06:50:16;5.80;;;3.20;;
27632;SDS011;15046;50.930;13.334;2023-05-10T06:52:42;5.53;;;3.05;;
27632;SDS011;15046;50.930;13.334;2023-05-10T06:55:07;8.73;;;3.20;;
27632;SDS011;15046;50.930;13.334;2023-05-10T06:57:34;6.10;;;3.58;;
27632;SDS011;15046;50.930;13.334;2023-05-10T07:00:00;7.00;;;3.08;;
27632;SDS011;15046;50.930;13.334;2023-05-10T07:02:26;9.60;;;3.72;;
27632;SDS011;15046;50.930;13.334;2023-05-10T07:04:52;7.05;;;2.97;;
27632;SDS011;15046;50.930;13.334;2023-05-10T07:07:19;6.90;;;2.67;;
27632;SDS011;15046;50.930;13.334;2023-05-10T07:09:44;7.93;;;3.35;;
27632;SDS011;15046;50.930;13.334;2023-05-10T07:12:10;5.93;;;2.78;;
27632;SDS011;15046;50.930;13.334;2023-05-10T07:14:36;7.60;;;3.42;;
27632;SDS011;15046;50.930;13.334;2023-05-10T07:17:02;7.32;;;3.42;;
27632;SDS011;15046;50.930;13.334;2023-05-10T07:19:28;5.40;;;3.28;;
27632;SDS011;15046;50.930;13.334;2023-05-10T07:21:54;7.15;;;3.50;;
27632;SDS011;15046;50.930;13.334;2023-05-10T07:24:20;9.20;;;3.70;;
27632;SDS011;15046;50.930;13.334;2023-05-10T07:26:46;5.35;;;2.88;;
27632;SDS011;15046;50.930;13.334;2023-05-10T07:29:12;5.35;;;2.90;;
27632;SDS011;15046;50.930;13.334;2023-05-10T07:31:38;4.10;;;2.78;;
27632;SDS011;15046;50.930;13.334;2023-05-10T07:34:03;5.38;;;2.75;;
27632;SDS011;15046;50.930;13.334;2023-05-10T07:36:29;5.50;;;3.15;;
27632;SDS011;15046;50.930;13.334;2023-05-10T07:38:55;5.75;;;3.13;;
27632;SDS011;15046;50.930;13.334;2023-05-10T07:41:22;5.07;;;3.20;;
27632;SDS011;15046;50.930;13.334;2023-05-10T07:43:48;6.65;;;2.92;;
27632;SDS011;15046;50.930;13.334;2023-05-10T07:46:14;6.32;;;2.92;;
27632;SDS011;15046;50.930;13.334;2023-05-10T07:48:40;5.97;;;3.33;;
27632;SDS011;15046;50.930;13.334;2023-05-10T07:51:06;5.57;;;2.85;;
27632;SDS011;15046;50.930;13.334;2023-05-10T07:53:34;7.65;;;3.33;;
27632;SDS011;15046;50.930;13.334;2023-05-10T07:56:19;8.10;;;3.83;;
27632;SDS011;15046;50.930;13.334;2023-05-10T07:59:00;7.78;;;3.38;;
27632;SDS011;15046;50.930;13.334;2023-05-10T08:01:32;6.97;;;3.10;;
27632;SDS011;15046;50.930;13.334;2023-05-10T08:03:59;7.05;;;3.58;;
27632;SDS011;15046;50.930;13.334;2023-05-10T08:06:25;6.38;;;3.25;;
27632;SDS011;15046;50.930;13.334;2023-05-10T08:08:53;7.75;;;4.28;;
27632;SDS011;15046;50.930;13.334;2023-05-10T08:11:19;5.53;;;3.22;;
27632;SDS011;15046;50.930;13.334;2023-05-10T08:13:46;6.82;;;3.67;;
27632;SDS011;15046;50.930;13.334;2023-05-10T08:16:12;10.35;;;3.88;;
27632;SDS011;15046;50.930;13.334;2023-05-10T08:18:39;6.78;;;3.80;;
27632;SDS011;15046;50.930;13.334;2023-05-10T08:21:05;7.68;;;4.15;;
27632;SDS011;15046;50.930;13.334;2023-05-10T08:23:31;6.43;;;4.20;;
27632;SDS011;15046;50.930;13.334;2023-05-10T08:25:58;8.05;;;3.97;;
27632;SDS011;15046;50.930;13.334;2023-05-10T08:28:24;7.57;;;3.95;;
27632;SDS011;15046;50.930;13.334;2023-05-10T08:30:50;6.60;;;3.88;;
27632;SDS011;15046;50.930;13.334;2023-05-10T08:33:19;7.22;;;4.45;;
27632;SDS011;15046;50.930;13.334;2023-05-10T08:35:45;8.45;;;4.32;;
27632;SDS011;15046;50.930;13.334;2023-05-10T08:38:10;10.73;;;4.43;;
27632;SDS011;15046;50.930;13.334;2023-05-10T08:40:37;7.03;;;4.63;;
27632;SDS011;15046;50.930;13.334;2023-05-10T08:43:05;8.52;;;4.95;;
27632;SDS011;15046;50.930;13.334;2023-05-10T08:45:36;8.35;;;4.60;;
27632;SDS011;15046;50.930;13.334;2023-05-10T08:48:05;8.35;;;4.35;;
27632;SDS011;15046;50.930;13.334;2023-05-10T08:50:32;7.00;;;3.92;;
27632;SDS011;15046;50.930;13.334;2023-05-10T08:53:12;5.90;;;3.97;;
27632;SDS011;15046;50.930;13.334;2023-05-10T08:55:40;9.45;;;4.90;;
27632;SDS011;15046;50.930;13.334;2023-05-10T08:58:07;13.20;;;5.00;;
27632;SDS011;15046;50.930;13.334;2023-05-10T09:00:34;8.98;;;4.47;;
27632;SDS011;15046;50.930;13.334;2023-05-10T09:03:02;6.82;;;4.18;;
27632;SDS011;15046;50.930;13.334;2023-05-10T09:05:30;6.20;;;3.95;;
27632;SDS011;15046;50.930;13.334;2023-05-10T09:07:56;7.28;;;4.50;;
27632;SDS011;15046;50.930;13.334;2023-05-10T09:10:22;8.57;;;4.65;;
27632;SDS011;15046;50.930;13.334;2023-05-10T09:12:51;7.47;;;4.45;;
27632;SDS011;15046;50.930;13.334;2023-05-10T09:15:18;6.60;;;4.10;;
27632;SDS011;15046;50.930;13.334;2023-05-10T09:17:45;7.90;;;4.47;;
27632;SDS011;15046;50.930;13.334;2023-05-10T09:20:12;7.25;;;4.63;;
27632;SDS011;15046;50.930;13.334;2023-05-10T09:22:38;9.98;;;4.93;;
27632;SDS011;15046;50.930;13.334;2023-05-10T09:25:12;7.15;;;4.88;;
27632;SDS011;15046;50.930;13.334;2023-05-10T09:27:40;9.55;;;5.20;;
27632;SDS011;15046;50.930;13.334;2023-05-10T09:30:07;9.80;;;4.85;;
27632;SDS011;15046;50.930;13.334;2023-05-10T09:32:40;10.27;;;4.43;;
27632;SDS011;15046;50.930;13.334;2023-05-10T09:35:10;6.80;;;4.30;;
27632;SDS011;15046;50.930;13.334;2023-05-10T09:37:38;11.23;;;4.63;;
27632;SDS011;15046;50.930;13.334;2023-05-10T09:40:12;7.78;;;4.63;;
27632;SDS011;15046;50.930;13.334;2023-05-10T09:42:42;7.70;;;3.88;;
27632;SDS011;15046;50.930;13.334;2023-05-10T09:45:15;6.63;;;4.30;;
27632;SDS011;15046;50.930;13.334;2023-05-10T09:47:41;7.43;;;4.43;;
27632;SDS011;15046;50.930;13.334;2023-05-10T09:50:07;6.75;;;3.67;;
27632;SDS011;15046;50.930;13.334;2023-05-10T09:55:27;6.93;;;3.60;;
27632;SDS011;15046;50.930;13.334;2023-05-10T09:58:03;6.15;;;3.58;;
27632;SDS011;15046;50.930;13.334;2023-05-10T10:00:35;8.88;;;4.18;;
27632;SDS011;15046;50.930;13.334;2023-05-10T10:03:03;8.05;;;3.88;;
27632;SDS011;15046;50.930;13.334;2023-05-10T10:05:33;7.97;;;3.97;;
27632;SDS011;15046;50.930;13.334;2023-05-10T10:08:02;8.95;;;4.18;;
27632;SDS011;15046;50.930;13.334;2023-05-10T10:10:29;7.17;;;4.03;;
27632;SDS011;15046;50.930;13.334;2023-05-10T10:12:56;17.80;;;4.80;;
27632;SDS011;15046;50.930;13.334;2023-05-10T10:15:23;5.68;;;3.55;;
27632;SDS011;15046;50.930;13.334;2023-05-10T10:17:50;5.68;;;3.90;;
27632;SDS011;15046;50.930;13.334;2023-05-10T10:20:16;5.88;;;3.83;;
27632;SDS011;15046;50.930;13.334;2023-05-10T10:22:43;8.77;;;3.97;;
27632;SDS011;15046;50.930;13.334;2023-05-10T10:25:16;7.60;;;3.65;;
27632;SDS011;15046;50.930;13.334;2023-05-10T10:27:44;7.85;;;3.97;;
27632;SDS011;15046;50.930;13.334;2023-05-10T10:35:40;6.63;;;4.32;;
27632;SDS011;15046;50.930;13.334;2023-05-10T10:38:08;7.15;;;4.00;;
27632;SDS011;15046;50.930;13.334;2023-05-10T10:40:34;6.00;;;3.40;;
27632;SDS011;15046;50.930;13.334;2023-05-10T10:43:34;8.57;;;3.95;;
27632;SDS011;15046;50.930;13.334;2023-05-10T10:46:09;7.78;;;3.58;;
27632;SDS011;15046;50.930;13.334;2023-05-10T10:48:36;7.43;;;4.10;;
27632;SDS011;15046;50.930;13.334;2023-05-10T10:51:02;10.48;;;4.35;;
27632;SDS011;15046;50.930;13.334;2023-05-10T10:53:28;7.40;;;3.83;;
27632;SDS011;15046;50.930;13.334;2023-05-10T10:56:10;6.80;;;4.28;;
27632;SDS011;15046;50.930;13.334;2023-05-10T10:58:38;8.55;;;4.05;;
27632;SDS011;15046;50.930;13.334;2023-05-10T11:01:15;6.38;;;3.75;;
27632;SDS011;15046;50.930;13.334;2023-05-10T11:06:41;7.72;;;4.10;;
27632;SDS011;15046;50.930;13.334;2023-05-10T11:09:08;6.13;;;4.35;;
27632;SDS011;15046;50.930;13.334;2023-05-10T11:11:35;11.13;;;4.03;;
27632;SDS011;15046;50.930;13.334;2023-05-10T11:14:13;6.70;;;4.40;;
27632;SDS011;15046;50.930;13.334;2023-05-10T11:16:42;7.50;;;4.43;;
27632;SDS011;15046;50.930;13.334;2023-05-10T11:19:09;5.93;;;3.88;;
27632;SDS011;15046;50.930;13.334;2023-05-10T11:21:49;7.78;;;4.47;;
27632;SDS011;15046;50.930;13.334;2023-05-10T11:24:30;7.72;;;4.40;;
27632;SDS011;15046;50.930;13.334;2023-05-10T11:26:56;7.50;;;4.28;;
27632;SDS011;15046;50.930;13.334;2023-05-10T11:29:22;8.80;;;3.67;;
27632;SDS011;15046;50.930;13.334;2023-05-10T11:31:48;11.13;;;4.20;;
27632;SDS011;15046;50.930;13.334;2023-05-10T11:34:27;8.27;;;4.93;;
27632;SDS011;15046;50.930;13.334;2023-05-10T11:36:59;7.43;;;5.07;;
27632;SDS011;15046;50.930;13.334;2023-05-10T11:39:28;8.50;;;5.28;;
27632;SDS011;15046;50.930;13.334;2023-05-10T11:41:56;8.30;;;5.05;;
27632;SDS011;15046;50.930;13.334;2023-05-10T11:44:22;9.82;;;4.35;;
27632;SDS011;15046;50.930;13.334;2023-05-10T11:46:49;6.63;;;4.70;;
27632;SDS011;15046;50.930;13.334;2023-05-10T11:49:15;9.05;;;4.68;;
27632;SDS011;15046;50.930;13.334;2023-05-10T11:51:41;6.50;;;4.47;;
27632;SDS011;15046;50.930;13.334;2023-05-10T11:54:09;8.02;;;4.75;;
27632;SDS011;15046;50.930;13.334;2023-05-10T11:56:36;8.45;;;4.60;;
27632;SDS011;15046;50.930;13.334;2023-05-10T11:59:03;7.22;;;4.88;;
27632;SDS011;15046;50.930;13.334;2023-05-10T12:01:30;8.13;;;4.88;;
27632;SDS011;15046;50.930;13.334;2023-05-10T12:03:56;6.32;;;4.07;;
27632;SDS011;15046;50.930;13.334;2023-05-10T12:06:28;6.70;;;3.90;;
27632;SDS011;15046;50.930;13.334;2023-05-10T12:08:56;4.68;;;3.20;;
27632;SDS011;15046;50.930;13.334;2023-05-10T12:11:26;5.85;;;3.53;;
27632;SDS011;15046;50.930;13.334;2023-05-10T12:13:53;5.05;;;3.38;;
27632;SDS011;15046;50.930;13.334;2023-05-10T12:16:20;5.97;;;3.45;;
27632;SDS011;15046;50.930;13.334;2023-05-10T12:18:51;5.35;;;3.20;;
27632;SDS011;15046;50.930;13.334;2023-05-10T12:21:18;4.75;;;3.20;;
27632;SDS011;15046;50.930;13.334;2023-05-10T12:23:51;7.78;;;3.80;;
27632;SDS011;15046;50.930;13.334;2023-05-10T12:26:18;5.00;;;3.30;;
27632;SDS011;15046;50.930;13.334;2023-05-10T12:28:46;4.82;;;3.10;;
27632;SDS011;15046;50.930;13.334;2023-05-10T12:31:12;5.18;;;3.58;;
27632;SDS011;15046;50.930;13.334;2023-05-10T12:33:39;6.15;;;3.03;;
27632;SDS011;15046;50.930;13.334;2023-05-10T12:36:08;9.25;;;3.67;;
27632;SDS011;15046;50.930;13.334;2023-05-10T12:38:41;7.45;;;4.38;;
27632;SDS011;15046;50.930;13.334;2023-05-10T12:41:09;7.07;;;3.40;;
27632;SDS011;15046;50.930;13.334;2023-05-10T12:43:36;5.65;;;3.58;;
27632;SDS011;15046;50.930;13.334;2023-05-10T12:46:04;7.70;;;3.42;;
27632;SDS011;15046;50.930;13.334;2023-05-10T12:48:37;5.22;;;2.88;;
27632;SDS011;15046;50.930;13.334;2023-05-10T12:51:05;5.85;;;3.20;;
27632;SDS011;15046;50.930;13.334;2023-05-10T12:53:34;4.00;;;2.58;;
27632;SDS011;15046;50.930;13.334;2023-05-10T12:56:01;5.70;;;3.20;;
27632;SDS011;15046;50.930;13.334;2023-05-10T12:58:27;6.88;;;3.28;;
27632;SDS011;15046;50.930;13.334;2023-05-10T13:00:52;4.05;;;2.45;;
27632;SDS011;15046;50.930;13.334;2023-05-10T13:03:20;4.15;;;2.38;;
27632;SDS011;15046;50.930;13.334;2023-05-10T13:05:45;5.00;;;2.78;;
27632;SDS011;15046;50.930;13.334;2023-05-10T13:08:11;5.32;;;2.47;;
27632;SDS011;15046;50.930;13.334;2023-05-10T13:10:37;4.70;;;2.67;;
27632;SDS011;15046;50.930;13.334;2023-05-10T13:13:03;5.65;;;2.47;;
27632;SDS011;15046;50.930;13.334;2023-05-10T13:15:29;12.98;;;2.58;;
27632;SDS011;15046;50.930;13.334;2023-05-10T13:17:54;5.05;;;2.65;;
27632;SDS011;15046;50.930;13.334;2023-05-10T13:20:20;3.85;;;2.33;;
27632;SDS011;15046;50.930;13.334;2023-05-10T13:22:46;3.38;;;1.83;;
27632;SDS011;15046;50.930;13.334;2023-05-10T13:25:12;5.78;;;2.28;;
27632;SDS011;15046;50.930;13.334;2023-05-10T13:27:39;5.75;;;2.30;;
27632;SDS011;15046;50.930;13.334;2023-05-10T13:30:05;2.80;;;1.77;;
27632;SDS011;15046;50.930;13.334;2023-05-10T13:32:32;5.43;;;1.92;;
27632;SDS011;15046;50.930;13.334;2023-05-10T13:34:58;2.60;;;1.00;;
27632;SDS011;15046;50.930;13.334;2023-05-10T13:37:24;3.42;;;1.20;;
27632;SDS011;15046;50.930;13.334;2023-05-10T13:39:50;2.42;;;1.50;;
27632;SDS011;15046;50.930;13.334;2023-05-10T13:42:15;2.85;;;1.48;;
27632;SDS011;15046;50.930;13.334;2023-05-10T13:44:42;3.47;;;1.60;;
27632;SDS011;15046;50.930;13.334;2023-05-10T13:47:07;3.20;;;1.70;;
27632;SDS011;15046;50.930;13.334;2023-05-10T13:49:33;3.13;;;2.00;;
27632;SDS011;15046;50.930;13.334;2023-05-10T13:51:59;4.10;;;2.50;;
27632;SDS011;15046;50.930;13.334;2023-05-10T13:54:32;4.03;;;2.05;;
27632;SDS011;15046;50.930;13.334;2023-05-10T13:56:58;3.65;;;1.95;;
27632;SDS011;15046;50.930;13.334;2023-05-10T13:59:25;3.58;;;2.20;;
27632;SDS011;15046;50.930;13.334;2023-05-10T14:01:50;4.35;;;2.28;;
27632;SDS011;15046;50.930;13.334;2023-05-10T14:04:16;2.63;;;1.48;;
27632;SDS011;15046;50.930;13.334;2023-05-10T14:06:42;2.42;;;1.50;;
27632;SDS011;15046;50.930;13.334;2023-05-10T14:09:08;3.47;;;1.92;;
27632;SDS011;15046;50.930;13.334;2023-05-10T14:11:34;3.88;;;1.80;;
27632;SDS011;15046;50.930;13.334;2023-05-10T14:13:59;3.88;;;2.00;;
27632;SDS011;15046;50.930;13.334;2023-05-10T14:16:25;3.90;;;2.22;;
27632;SDS011;15046;50.930;13.334;2023-05-10T14:18:52;5.05;;;2.63;;
27632;SDS011;15046;50.930;13.334;2023-05-10T14:21:18;4.68;;;2.58;;
27632;SDS011;15046;50.930;13.334;2023-05-10T14:23:44;4.75;;;2.55;;
27632;SDS011;15046;50.930;13.334;2023-05-10T14:26:09;5.47;;;3.20;;
27632;SDS011;15046;50.930;13.334;2023-05-10T14:28:35;7.05;;;3.28;;
27632;SDS011;15046;50.930;13.334;2023-05-10T14:31:01;4.45;;;2.95;;
27632;SDS011;15046;50.930;13.334;2023-05-10T14:33:27;4.68;;;2.67;;
27632;SDS011;15046;50.930;13.334;2023-05-10T14:35:53;8.38;;;3.65;;
27632;SDS011;15046;50.930;13.334;2023-05-10T14:38:21;4.13;;;2.60;;
27632;SDS011;15046;50.930;13.334;2023-05-10T14:40:47;5.13;;;2.80;;
27632;SDS011;15046;50.930;13.334;2023-05-10T14:43:13;4.95;;;3.08;;
27632;SDS011;15046;50.930;13.334;2023-05-10T14:45:39;5.13;;;3.00;;
27632;SDS011;15046;50.930;13.334;2023-05-10T14:48:04;6.07;;;2.80;;
27632;SDS011;15046;50.930;13.334;2023-05-10T14:50:30;6.18;;;2.70;;
27632;SDS011;15046;50.930;13.334;2023-05-10T14:52:57;4.15;;;2.63;;
27632;SDS011;15046;50.930;13.334;2023-05-10T14:55:24;5.40;;;2.45;;
27632;SDS011;15046;50.930;13.334;2023-05-10T14:57:51;7.35;;;2.97;;
27632;SDS011;15046;50.930;13.334;2023-05-10T15:00:16;4.70;;;2.80;;
27632;SDS011;15046;50.930;13.334;2023-05-10T15:02:44;4.72;;;2.63;;
27632;SDS011;15046;50.930;13.334;2023-05-10T15:05:10;3.85;;;2.22;;
27632;SDS011;15046;50.930;13.334;2023-05-10T15:07:35;5.97;;;3.80;;
27632;SDS011;15046;50.930;13.334;2023-05-10T15:10:01;5.55;;;3.30;;